Time;durP1;ratioP1;P1;durP2;ratioP2;P2;SDS_P1;SDS_P2;PMS_P1;PMS_P2;Temp;Humidity;BMP_temperature;BMP_pressure;BME280_temperature;BME280_humidity;BME280_pressure;Samples;Min_cycle;Max_cycle;Signal;HPM_P1;HPM_P2
2022/08/29 00:00:11;;;;;;;4.20;3.90;;;23.30;77.20;;;;;;5012121;28;20295;-71
2022/08/29 00:02:37;;;;;;;3.95;3.65;;;23.30;77.20;;;;;;5019736;28;20195;-71
2022/08/29 00:05:05;;;;;;;3.97;3.67;;;23.40;77.30;;;;;;5031242;28;20207;-71
2022/08/29 00:07:31;;;;;;;3.92;3.63;;;23.30;77.10;;;;;;5015250;28;20183;-71
2022/08/29 00:09:56;;;;;;;4.10;3.80;;;23.40;77.30;;;;;;5014319;28;20218;-71
2022/08/29 00:12:22;;;;;;;4.60;4.20;;;23.30;77.20;;;;;;5031299;28;20179;-70
2022/08/29 00:14:48;;;;;;;4.57;4.18;;;23.30;77.10;;;;;;5031452;28;20188;-71
2022/08/29 00:17:14;;;;;;;4.30;4.00;;;23.30;77.00;;;;;;5031191;28;20191;-71
2022/08/29 00:19:40;;;;;;;4.57;4.20;;;23.30;77.90;;;;;;5030970;28;20333;-70
2022/08/29 00:22:06;;;;;;;4.10;3.80;;;23.30;77.10;;;;;;5030960;28;20286;-70
2022/08/29 00:24:31;;;;;;;4.00;3.70;;;23.30;77.10;;;;;;5047908;28;20282;-71
2022/08/29 00:26:59;;;;;;;3.63;3.33;;;23.30;77.00;;;;;;5031173;28;20191;-71
2022/08/29 00:29:25;;;;;;;4.28;3.97;;;23.30;77.00;;;;;;5031236;28;20636;-71
2022/08/29 00:31:51;;;;;;;4.45;4.07;;;23.30;77.00;;;;;;5014831;28;20195;-71
2022/08/29 00:34:17;;;;;;;3.78;3.47;;;23.30;77.00;;;;;;5030697;28;20297;-71
2022/08/29 00:36:43;;;;;;;3.80;3.50;;;23.30;77.00;;;;;;5031104;28;20218;-71
2022/08/29 00:39:09;;;;;;;4.13;3.83;;;23.30;77.00;;;;;;5031147;28;20202;-71
2022/08/29 00:41:34;;;;;;;4.38;4.07;;;23.30;77.00;;;;;;5032705;28;20254;-71
2022/08/29 00:44:01;;;;;;;4.07;3.78;;;23.30;76.90;;;;;;5014143;28;20233;-71
2022/08/29 00:46:42;;;;;;;3.88;3.58;;;23.30;76.80;;;;;;5047419;28;20246;-72
2022/08/29 00:49:27;;;;;;;3.95;3.65;;;23.30;76.80;;;;;;5031272;28;20214;-71
2022/08/29 00:51:56;;;;;;;4.50;4.20;;;23.30;76.60;;;;;;5031207;28;20247;-71
2022/08/29 00:54:22;;;;;;;3.88;3.63;;;23.30;76.70;;;;;;5030859;28;20171;-71
2022/08/29 00:56:50;;;;;;;4.75;4.40;;;23.30;76.50;;;;;;5032134;28;20183;-71
2022/08/29 00:59:30;;;;;;;3.90;3.67;;;23.30;76.70;;;;;;5030939;28;20207;-71
2022/08/29 01:01:57;;;;;;;4.22;3.92;;;23.30;76.80;;;;;;5014449;28;20198;-71
2022/08/29 01:04:23;;;;;;;4.05;3.70;;;23.20;76.60;;;;;;5030155;28;20253;-71
2022/08/29 01:06:49;;;;;;;4.03;3.78;;;23.30;76.50;;;;;;5031835;28;20229;-71
2022/08/29 01:09:15;;;;;;;3.95;3.65;;;23.30;76.60;;;;;;5030807;28;20218;-71
2022/08/29 01:14:26;;;;;;;4.10;3.80;;;23.30;76.50;;;;;;5030310;28;20229;-71
2022/08/29 01:16:57;;;;;;;3.90;3.60;;;23.30;76.50;;;;;;5030493;28;20188;-71
2022/08/29 01:19:44;;;;;;;4.22;3.92;;;23.20;76.40;;;;;;5032161;28;20206;-71
2022/08/29 01:22:53;;;;;;;3.95;3.60;;;23.20;76.40;;;;;;5034151;28;20213;-71
2022/08/29 01:25:26;;;;;;;4.20;3.83;;;23.20;76.40;;;;;;5011786;28;20246;-71
2022/08/29 01:28:10;;;;;;;3.97;3.67;;;23.20;76.40;;;;;;5034795;28;20180;-71
2022/08/29 01:30:57;;;;;;;3.95;3.72;;;23.20;76.40;;;;;;5035612;28;20207;-71
2022/08/29 01:33:22;;;;;;;4.22;3.92;;;23.20;76.40;;;;;;5025608;28;20185;-71
2022/08/29 01:35:48;;;;;;;3.85;3.55;;;23.20;76.40;;;;;;5033717;28;20184;-71
2022/08/29 01:38:26;;;;;;;3.95;3.72;;;23.20;76.40;;;;;;5035779;28;20179;-71
2022/08/29 01:40:59;;;;;;;3.92;3.63;;;23.20;76.40;;;;;;5034298;28;20639;-71
2022/08/29 01:43:26;;;;;;;3.80;3.50;;;23.20;76.40;;;;;;5033656;28;20191;-71
2022/08/29 01:45:52;;;;;;;4.40;4.10;;;23.20;76.40;;;;;;5017879;28;20268;-71
2022/08/29 01:48:19;;;;;;;3.60;3.30;;;23.20;76.40;;;;;;5033916;28;20309;-71
2022/08/29 01:50:45;;;;;;;3.67;3.47;;;23.20;76.40;;;;;;5035256;28;20187;-71
2022/08/29 01:53:12;;;;;;;4.28;3.97;;;23.20;76.40;;;;;;5033768;28;20536;-71
2022/08/29 01:55:39;;;;;;;3.85;3.63;;;23.20;76.40;;;;;;5034940;28;20187;-71
2022/08/29 01:58:06;;;;;;;4.18;3.78;;;23.20;76.40;;;;;;5017765;28;20210;-71
2022/08/29 02:00:35;;;;;;;4.22;3.92;;;23.20;76.40;;;;;;5033934;28;20207;-71
2022/08/29 02:03:01;;;;;;;3.97;3.67;;;23.20;76.40;;;;;;5034585;28;20191;-71
2022/08/29 02:05:28;;;;;;;4.07;3.78;;;23.20;76.40;;;;;;5033780;28;20211;-71
2022/08/29 02:07:55;;;;;;;3.65;3.35;;;23.20;76.40;;;;;;5033899;28;20180;-71
2022/08/29 02:10:23;;;;;;;4.35;4.05;;;23.20;76.50;;;;;;5011575;28;20212;-70
2022/08/29 02:12:52;;;;;;;4.05;3.75;;;23.20;76.40;;;;;;5032699;28;20187;-71
2022/08/29 02:15:19;;;;;;;4.00;3.70;;;23.20;76.40;;;;;;5034793;28;20659;-71
2022/08/29 02:17:45;;;;;;;3.78;3.47;;;23.20;77.00;;;;;;5033118;28;20203;-71
2022/08/29 02:20:11;;;;;;;4.07;3.78;;;23.20;76.30;;;;;;5034830;28;20211;-71
2022/08/29 02:22:38;;;;;;;3.95;3.67;;;23.10;76.00;;;;;;5016857;28;20194;-71
2022/08/29 02:25:40;;;;;;;4.00;3.70;;;23.20;76.20;;;;;;5033476;28;20218;-71
2022/08/29 02:27:53;;;;;;;3.80;3.50;;;23.20;76.20;;;;;;5034593;28;20191;-71
2022/08/29 02:30:20;;;;;;;3.90;3.67;;;23.20;76.10;;;;;;5034578;28;20191;-71
2022/08/29 02:32:47;;;;;;;4.20;3.90;;;23.10;75.90;;;;;;5031754;28;20187;-70
2022/08/29 02:35:14;;;;;;;3.50;3.30;;;23.20;76.20;;;;;;5033008;28;20183;-70
2022/08/29 02:37:40;;;;;;;3.70;3.47;;;23.10;75.90;;;;;;5033470;28;20183;-70
2022/08/29 02:40:07;;;;;;;4.05;3.75;;;23.20;76.00;;;;;;5033404;28;20214;-71
2022/08/29 02:42:32;;;;;;;4.00;3.70;;;23.10;76.00;;;;;;5032970;28;20186;-70
2022/08/29 02:45:00;;;;;;;3.92;3.63;;;23.10;75.90;;;;;;5032961;28;20215;-71
2022/08/29 02:47:26;;;;;;;3.83;3.53;;;23.10;75.90;;;;;;5032863;28;20184;-71
2022/08/29 02:49:53;;;;;;;3.50;3.30;;;23.10;75.90;;;;;;5027023;28;20204;-71
2022/08/29 02:52:19;;;;;;;3.92;3.63;;;23.10;75.90;;;;;;5032416;28;20194;-70
2022/08/29 02:54:45;;;;;;;3.88;3.58;;;23.10;75.80;;;;;;5033276;28;20187;-71
2022/08/29 02:57:11;;;;;;;3.38;3.17;;;23.10;75.70;;;;;;5049327;28;20670;-71
2022/08/29 02:59:37;;;;;;;4.00;3.70;;;23.10;75.70;;;;;;5034041;28;20226;-71
2022/08/29 03:02:03;;;;;;;3.80;3.50;;;23.10;75.70;;;;;;5032698;28;20183;-72
2022/08/29 03:04:28;;;;;;;3.90;3.63;;;23.10;75.70;;;;;;5031905;28;20643;-71
2022/08/29 03:06:54;;;;;;;3.58;3.28;;;23.10;75.70;;;;;;5032793;28;20179;-71
2022/08/29 03:09:20;;;;;;;3.72;3.42;;;23.10;75.60;;;;;;5032539;28;20584;-71
2022/08/29 03:11:46;;;;;;;3.80;3.60;;;23.10;75.70;;;;;;5016321;28;20652;-71
2022/08/29 03:14:12;;;;;;;3.58;3.38;;;23.10;75.50;;;;;;5032118;28;20207;-71
2022/08/29 03:16:38;;;;;;;3.50;3.30;;;23.20;75.70;;;;;;5032668;28;20244;-71
2022/08/29 03:19:05;;;;;;;3.80;3.53;;;23.20;75.70;;;;;;5031996;28;20215;-71
2022/08/29 03:21:32;;;;;;;4.03;3.72;;;23.10;75.60;;;;;;5015716;28;20191;-71
2022/08/29 03:23:58;;;;;;;3.50;3.28;;;23.10;75.50;;;;;;5031764;28;20195;-71
2022/08/29 03:26:24;;;;;;;3.75;3.53;;;23.10;75.60;;;;;;5032589;28;20223;-71
2022/08/29 03:28:50;;;;;;;3.70;3.50;;;23.10;75.50;;;;;;5033412;28;20199;-71
2022/08/29 03:31:16;;;;;;;3.55;3.33;;;23.10;75.50;;;;;;5033477;28;20180;-71
2022/08/29 03:33:42;;;;;;;3.70;3.40;;;23.10;75.50;;;;;;5015037;28;20193;-70
2022/08/29 03:36:09;;;;;;;3.85;3.55;;;23.10;75.50;;;;;;5048615;28;20179;-71
2022/08/29 03:38:37;;;;;;;3.65;3.35;;;23.10;75.40;;;;;;5032212;28;20211;-71
2022/08/29 03:41:04;;;;;;;3.63;3.35;;;23.10;75.40;;;;;;5033599;28;20712;-71
2022/08/29 03:43:30;;;;;;;3.65;3.40;;;23.10;76.20;;;;;;5031497;28;20254;-71
2022/08/29 03:45:56;;;;;;;3.78;3.47;;;23.10;75.40;;;;;;5033105;28;20246;-71
2022/08/29 03:48:22;;;;;;;4.13;3.72;;;23.10;75.40;;;;;;5031921;28;20218;-71
2022/08/29 03:50:48;;;;;;;3.42;3.17;;;23.10;75.40;;;;;;5031486;28;20195;-71
2022/08/29 03:53:14;;;;;;;3.38;3.17;;;23.10;75.30;;;;;;5031329;28;20190;-71
2022/08/29 03:55:40;;;;;;;3.67;3.38;;;23.10;75.30;;;;;;5031797;28;20270;-71
2022/08/29 03:58:06;;;;;;;3.22;3.03;;;23.10;75.30;;;;;;5015405;28;20187;-71
2022/08/29 04:00:32;;;;;;;3.70;3.40;;;23.10;75.20;;;;;;5031621;28;20265;-71
2022/08/29 04:02:58;;;;;;;3.50;3.20;;;23.10;75.30;;;;;;5014703;28;20199;-70
2022/08/29 04:05:24;;;;;;;3.20;3.00;;;23.10;75.20;;;;;;5031365;28;20239;-71
2022/08/29 04:07:52;;;;;;;3.33;3.13;;;23.10;75.20;;;;;;5031563;28;20223;-71
2022/08/29 04:10:30;;;;;;;3.78;3.47;;;23.00;75.10;;;;;;5031358;28;20210;-71
2022/08/29 04:12:56;;;;;;;3.53;3.33;;;23.10;75.20;;;;;;5014561;28;20266;-71
2022/08/29 04:15:24;;;;;;;3.33;3.10;;;23.10;75.00;;;;;;5031625;28;20188;-71
2022/08/29 04:17:54;;;;;;;3.15;2.95;;;23.10;75.00;;;;;;5032302;28;20657;-71
2022/08/29 04:20:25;;;;;;;3.00;2.75;;;23.10;75.10;;;;;;5032279;28;20203;-71
2022/08/29 04:22:53;;;;;;;3.35;3.15;;;23.00;75.10;;;;;;5014485;28;20222;-71
2022/08/29 04:25:21;;;;;;;3.28;3.08;;;23.10;75.00;;;;;;5015102;28;20211;-71
2022/08/29 04:27:48;;;;;;;3.53;3.33;;;23.00;75.00;;;;;;5031551;28;20195;-71
2022/08/29 04:30:19;;;;;;;3.50;3.20;;;23.10;75.00;;;;;;5015039;28;20209;-71
2022/08/29 04:32:46;;;;;;;2.85;2.67;;;23.00;74.90;;;;;;5030464;28;20262;-71
2022/08/29 04:35:14;;;;;;;3.38;3.15;;;23.10;74.90;;;;;;5014854;28;20187;-71
2022/08/29 04:37:42;;;;;;;3.47;3.28;;;23.10;75.00;;;;;;5014988;28;20184;-71
2022/08/29 04:40:14;;;;;;;3.28;3.08;;;23.00;74.80;;;;;;5014729;28;20207;-71
2022/08/29 04:42:40;;;;;;;3.25;3.05;;;23.00;74.80;;;;;;5030628;28;20658;-71
2022/08/29 04:45:10;;;;;;;3.42;3.22;;;23.00;74.80;;;;;;5031251;28;20360;-71
2022/08/29 04:47:37;;;;;;;3.58;3.28;;;23.00;74.80;;;;;;5014379;28;20182;-71
2022/08/29 04:50:06;;;;;;;3.28;3.08;;;23.00;74.80;;;;;;5031978;28;20199;-71
2022/08/29 04:52:32;;;;;;;3.20;3.00;;;23.00;74.70;;;;;;5030363;28;20668;-70
2022/08/29 04:54:59;;;;;;;3.17;2.97;;;23.00;74.70;;;;;;5032496;28;20405;-71
2022/08/29 04:57:25;;;;;;;3.50;3.30;;;23.00;74.70;;;;;;5035408;28;20179;-71
2022/08/29 04:59:57;;;;;;;3.30;3.10;;;23.00;74.60;;;;;;5035303;28;20207;-71
2022/08/29 05:02:25;;;;;;;3.40;3.20;;;23.00;74.60;;;;;;5034919;28;20274;-71
2022/08/29 05:04:55;;;;;;;3.30;3.10;;;23.00;74.60;;;;;;5035389;28;20239;-71
2022/08/29 05:07:25;;;;;;;3.17;2.97;;;23.00;74.70;;;;;;5035109;28;20203;-71
2022/08/29 05:10:09;;;;;;;3.08;2.88;;;23.00;74.70;;;;;;5051506;28;20203;-71
2022/08/29 05:12:36;;;;;;;3.58;3.08;;;23.00;74.70;;;;;;5018186;28;20168;-70
2022/08/29 05:15:04;;;;;;;3.28;3.08;;;23.00;74.70;;;;;;5035955;28;20187;-70
2022/08/29 05:17:30;;;;;;;2.85;2.65;;;23.00;74.70;;;;;;5034654;28;20241;-71
2022/08/29 05:19:56;;;;;;;3.28;3.08;;;23.00;74.60;;;;;;5035743;28;20215;-70
2022/08/29 05:22:22;;;;;;;3.75;3.05;;;23.00;74.60;;;;;;5034615;28;20283;-71
2022/08/29 05:24:49;;;;;;;3.03;2.83;;;23.00;74.50;;;;;;5035112;28;20222;-71
2022/08/29 05:27:19;;;;;;;3.25;3.05;;;23.00;74.60;;;;;;5034393;28;20186;-70
2022/08/29 05:29:50;;;;;;;3.40;3.20;;;23.00;74.40;;;;;;5018141;28;20230;-70
2022/08/29 05:32:18;;;;;;;3.08;2.80;;;23.00;74.50;;;;;;5013181;28;20199;-71
2022/08/29 05:34:46;;;;;;;3.22;2.92;;;22.90;74.40;;;;;;5039756;28;20192;-71
2022/08/29 05:37:18;;;;;;;2.75;2.65;;;23.00;74.50;;;;;;5034507;28;20639;-71
2022/08/29 05:39:46;;;;;;;3.00;2.80;;;23.00;74.40;;;;;;5035645;28;20293;-71
2022/08/29 05:42:12;;;;;;;3.08;2.88;;;22.90;74.50;;;;;;5051332;28;20187;-71
2022/08/29 05:44:39;;;;;;;3.42;3.22;;;23.00;74.50;;;;;;5034885;28;20233;-71
2022/08/29 05:47:08;;;;;;;3.22;2.92;;;23.00;75.00;;;;;;5034273;28;20268;-71
2022/08/29 05:49:37;;;;;;;3.70;3.40;;;23.00;74.50;;;;;;5033941;28;20227;-71
2022/08/29 05:52:04;;;;;;;3.17;2.97;;;22.90;74.40;;;;;;5017946;28;20187;-71
2022/08/29 05:54:34;;;;;;;2.97;2.78;;;22.90;74.30;;;;;;5034804;28;20244;-71
2022/08/29 05:57:00;;;;;;;3.10;2.90;;;23.00;74.50;;;;;;5017848;28;20184;-71
2022/08/29 05:59:26;;;;;;;2.95;2.75;;;22.90;74.40;;;;;;5034007;28;20207;-71
2022/08/29 06:01:52;;;;;;;3.15;2.95;;;23.00;74.50;;;;;;5016279;28;20643;-72
2022/08/29 06:04:18;;;;;;;2.80;2.60;;;23.00;74.50;;;;;;5016708;28;20187;-72
2022/08/29 06:06:43;;;;;;;2.90;2.70;;;23.00;74.40;;;;;;5032225;28;20211;-71
2022/08/29 06:09:11;;;;;;;2.63;2.50;;;22.90;74.40;;;;;;5034989;28;20209;-71
2022/08/29 06:11:37;;;;;;;3.28;3.08;;;23.00;74.50;;;;;;5031664;28;20187;-71
2022/08/29 06:14:04;;;;;;;2.70;2.60;;;23.00;74.50;;;;;;5033027;28;20179;-71
2022/08/29 06:16:31;;;;;;;3.10;2.90;;;22.90;74.50;;;;;;5017468;28;20188;-71
2022/08/29 06:18:57;;;;;;;2.90;2.70;;;22.90;74.40;;;;;;5033282;28;20222;-71
2022/08/29 06:21:24;;;;;;;3.00;2.80;;;23.00;74.50;;;;;;5017176;28;20191;-71
2022/08/29 06:23:50;;;;;;;2.80;2.60;;;22.90;74.40;;;;;;5033334;28;20172;-71
2022/08/29 06:26:18;;;;;;;3.28;3.08;;;22.90;74.50;;;;;;5033246;28;20222;-71
2022/08/29 06:28:45;;;;;;;3.08;2.78;;;22.90;74.60;;;;;;5016849;28;20294;-72
2022/08/29 06:31:17;;;;;;;2.90;2.70;;;22.90;74.60;;;;;;5016759;28;20187;-71
2022/08/29 06:33:43;;;;;;;3.08;2.88;;;22.90;74.60;;;;;;5032761;28;20279;-71
2022/08/29 06:36:10;;;;;;;3.17;2.97;;;22.90;74.70;;;;;;5033114;28;20262;-71
2022/08/29 06:38:36;;;;;;;2.90;2.70;;;22.90;74.80;;;;;;5033201;28;20290;-71
2022/08/29 06:41:09;;;;;;;3.28;3.03;;;22.90;74.80;;;;;;5033172;28;20180;-71
2022/08/29 06:43:36;;;;;;;3.17;2.97;;;22.90;74.90;;;;;;5032749;28;20218;-71
2022/08/29 06:46:03;;;;;;;3.13;2.92;;;22.90;75.00;;;;;;5034174;28;20290;-71
2022/08/29 06:48:29;;;;;;;3.00;2.80;;;22.90;75.00;;;;;;5032947;28;20187;-71
2022/08/29 06:50:56;;;;;;;2.97;2.78;;;22.90;75.00;;;;;;5034294;28;20259;-70
2022/08/29 06:53:22;;;;;;;3.30;3.10;;;22.90;75.10;;;;;;5016163;28;20667;-71
2022/08/29 06:55:48;;;;;;;3.45;3.17;;;22.90;75.20;;;;;;5032710;28;20187;-71
2022/08/29 06:58:14;;;;;;;3.22;3.03;;;23.00;75.40;;;;;;5032922;28;20271;-72
2022/08/29 07:00:42;;;;;;;3.53;3.33;;;22.90;75.20;;;;;;5033914;28;20294;-71
2022/08/29 07:03:08;;;;;;;3.30;3.10;;;22.90;75.30;;;;;;5033192;28;20689;-73
2022/08/29 07:05:34;;;;;;;3.30;3.10;;;23.00;75.30;;;;;;5016164;28;20694;-72
2022/08/29 07:08:00;;;;;;;3.47;3.17;;;23.00;75.40;;;;;;5032875;28;20210;-71
2022/08/29 07:10:25;;;;;;;3.20;2.88;;;23.00;75.20;;;;;;5029332;28;20731;-71
2022/08/29 07:12:53;;;;;;;3.50;3.20;;;23.00;75.40;;;;;;5012193;28;20184;-70
2022/08/29 07:15:21;;;;;;;4.05;3.78;;;23.00;75.20;;;;;;5012810;28;20537;-71
2022/08/29 07:17:48;;;;;;;4.63;3.60;;;23.00;75.20;;;;;;5026737;28;20203;-71
2022/08/29 07:20:15;;;;;;;4.10;3.80;;;23.10;75.20;;;;;;5033475;28;20208;-71
2022/08/29 07:22:42;;;;;;;4.53;4.13;;;23.10;75.40;;;;;;5032573;28;20191;-71
2022/08/29 07:25:09;;;;;;;4.10;3.70;;;23.10;75.20;;;;;;5031974;28;20203;-71
2022/08/29 07:27:35;;;;;;;4.13;3.80;;;23.10;75.30;;;;;;5032419;28;20191;-71
2022/08/29 07:30:04;;;;;;;3.60;3.30;;;23.10;75.30;;;;;;5033318;28;20200;-70
2022/08/29 07:32:30;;;;;;;3.92;3.63;;;23.10;75.30;;;;;;5028849;28;20196;-70
2022/08/29 07:34:56;;;;;;;4.20;3.90;;;23.10;75.30;;;;;;5030757;28;20195;-71
2022/08/29 07:37:22;;;;;;;4.63;4.22;;;23.10;75.30;;;;;;5015576;28;20175;-71
2022/08/29 07:39:48;;;;;;;4.32;4.03;;;23.20;75.40;;;;;;5033305;28;20257;-71
2022/08/29 07:42:14;;;;;;;4.50;4.10;;;23.10;75.30;;;;;;5032407;28;20191;-71
2022/08/29 07:44:40;;;;;;;4.20;3.80;;;23.20;75.50;;;;;;5031713;28;20191;-71
2022/08/29 07:47:05;;;;;;;5.35;3.58;;;23.20;75.50;;;;;;5031699;28;20609;-72
2022/08/29 07:49:32;;;;;;;4.03;3.72;;;23.10;75.30;;;;;;5032848;28;20207;-71
2022/08/29 07:51:58;;;;;;;4.10;3.75;;;23.20;75.40;;;;;;5032189;28;20191;-72
2022/08/29 07:54:24;;;;;;;4.10;3.80;;;23.20;75.20;;;;;;5032651;28;20632;-71
2022/08/29 07:56:52;;;;;;;4.47;4.07;;;23.20;75.40;;;;;;5015645;28;20267;-71
2022/08/29 07:59:20;;;;;;;4.82;4.32;;;23.30;75.20;;;;;;5031704;28;20234;-71
2022/08/29 08:01:46;;;;;;;4.88;4.10;;;23.30;75.20;;;;;;5031704;28;20607;-71
2022/08/29 08:04:13;;;;;;;3.90;3.60;;;23.30;75.10;;;;;;5030877;28;20241;-71
2022/08/29 08:06:41;;;;;;;4.05;3.75;;;23.30;75.00;;;;;;5015290;28;20309;-71
2022/08/29 08:09:08;;;;;;;4.10;3.80;;;23.30;74.90;;;;;;5015119;28;20248;-71
2022/08/29 08:11:37;;;;;;;4.53;4.13;;;23.40;75.00;;;;;;5031644;28;20559;-71
2022/08/29 08:14:03;;;;;;;5.35;3.85;;;23.40;75.00;;;;;;5030982;28;20180;-72
2022/08/29 08:16:30;;;;;;;4.95;4.13;;;23.40;74.90;;;;;;5031291;28;20282;-71
2022/08/29 08:18:56;;;;;;;4.20;3.90;;;23.40;75.00;;;;;;5014440;28;20218;-71
2022/08/29 08:21:24;;;;;;;4.10;3.80;;;23.40;75.10;;;;;;5031384;28;20189;-71
2022/08/29 08:23:51;;;;;;;4.38;4.03;;;23.40;75.10;;;;;;5031158;28;20183;-71
2022/08/29 08:26:18;;;;;;;4.28;3.97;;;23.40;75.20;;;;;;5014622;28;20203;-72
2022/08/29 08:28:44;;;;;;;4.32;4.03;;;23.40;75.10;;;;;;5029902;28;20567;-71
2022/08/29 08:31:13;;;;;;;4.50;4.10;;;23.40;75.20;;;;;;5031094;28;20178;-72
2022/08/29 08:33:41;;;;;;;4.00;3.63;;;23.40;75.20;;;;;;5032061;28;20225;-71
2022/08/29 08:36:29;;;;;;;4.50;4.10;;;23.40;75.20;;;;;;5031121;28;20184;-72
2022/08/29 08:38:58;;;;;;;4.30;3.90;;;23.40;75.10;;;;;;5031470;28;20294;-71
2022/08/29 08:41:49;;;;;;;4.28;3.95;;;23.40;75.20;;;;;;5031056;28;20188;-72
2022/08/29 08:44:21;;;;;;;4.25;3.80;;;23.40;75.20;;;;;;5030967;28;20198;-71
2022/08/29 08:46:54;;;;;;;4.22;3.83;;;23.40;75.10;;;;;;5032509;28;20297;-71
2022/08/29 08:49:45;;;;;;;4.03;3.72;;;23.40;75.00;;;;;;5030299;28;20251;-72
2022/08/29 08:52:30;;;;;;;4.00;3.70;;;23.40;75.10;;;;;;5025722;28;20602;-72
2022/08/29 08:55:13;;;;;;;4.47;4.07;;;23.50;75.10;;;;;;5031459;28;20227;-72
2022/08/29 08:57:53;;;;;;;4.07;3.78;;;23.50;75.20;;;;;;5014936;28;20651;-72
2022/08/29 09:00:20;;;;;;;4.50;4.18;;;23.50;75.90;;;;;;5027239;28;20219;-72
2022/08/29 09:03:11;;;;;;;3.80;3.50;;;23.50;75.20;;;;;;5012669;28;20318;-72
2022/08/29 09:06:30;;;;;;;4.00;3.63;;;23.50;75.20;;;;;;5031312;28;20353;-72
2022/08/29 09:09:31;;;;;;;5.13;4.32;;;23.50;75.30;;;;;;4993697;28;20258;-72
2022/08/29 09:12:31;;;;;;;4.53;4.18;;;23.50;75.30;;;;;;5031242;28;20210;-72
2022/08/29 09:15:19;;;;;;;5.38;4.03;;;23.50;75.30;;;;;;5011199;28;20196;-71
2022/08/29 09:18:04;;;;;;;4.80;4.13;;;23.50;75.30;;;;;;5030992;28;20202;-72
2022/08/29 09:20:35;;;;;;;4.45;4.05;;;23.50;75.40;;;;;;5014500;28;20733;-72
2022/08/29 09:23:44;;;;;;;3.97;3.67;;;23.50;75.40;;;;;;5030554;28;20210;-73
2022/08/29 09:26:19;;;;;;;4.65;4.05;;;23.50;75.50;;;;;;5014000;28;20287;-71
2022/08/29 09:28:46;;;;;;;4.40;4.00;;;23.40;75.40;;;;;;5030831;28;20238;-71
2022/08/29 09:31:28;;;;;;;3.95;3.65;;;23.50;75.40;;;;;;5023303;28;20179;-71
2022/08/29 09:34:07;;;;;;;4.50;4.10;;;23.50;75.40;;;;;;5030510;28;20228;-71
2022/08/29 09:36:52;;;;;;;4.78;4.45;;;23.50;75.40;;;;;;5031186;28;20237;-71
2022/08/29 09:39:31;;;;;;;4.10;3.80;;;23.50;75.30;;;;;;5031839;28;20207;-71
2022/08/29 09:42:12;;;;;;;4.05;3.75;;;23.50;76.20;;;;;;5016672;28;20187;-72
2022/08/29 09:44:49;;;;;;;4.35;3.92;;;23.50;75.50;;;;;;5034016;28;20175;-71
2022/08/29 09:47:26;;;;;;;4.00;3.70;;;23.50;75.40;;;;;;5034612;28;20171;-72
2022/08/29 09:50:27;;;;;;;4.57;4.18;;;23.50;75.40;;;;;;5034621;28;20199;-72
2022/08/29 09:52:59;;;;;;;4.25;3.83;;;23.50;75.30;;;;;;4980908;28;20226;-72
2022/08/29 09:55:30;;;;;;;4.82;4.43;;;23.50;75.30;;;;;;5029900;28;20654;-72
2022/08/29 09:58:05;;;;;;;4.45;4.07;;;23.50;75.20;;;;;;5034307;28;20206;-72
2022/08/29 10:00:42;;;;;;;5.20;4.47;;;23.60;75.30;;;;;;5034669;28;20213;-71
2022/08/29 10:03:21;;;;;;;3.85;3.55;;;23.60;75.40;;;;;;5033763;28;20195;-71
2022/08/29 10:05:48;;;;;;;4.22;3.92;;;23.50;75.30;;;;;;5034298;28;20226;-71
2022/08/29 10:08:30;;;;;;;4.45;4.05;;;23.50;75.00;;;;;;5033934;28;20225;-71
2022/08/29 10:11:04;;;;;;;4.30;3.92;;;23.50;75.20;;;;;;5017703;28;20175;-71
2022/08/29 10:13:46;;;;;;;5.47;3.92;;;23.50;75.10;;;;;;5033535;28;20187;-72
2022/08/29 10:16:45;;;;;;;4.50;4.20;;;23.50;75.10;;;;;;5017281;28;20249;-72
2022/08/29 10:19:28;;;;;;;4.65;4.28;;;23.50;75.30;;;;;;5033572;28;20219;-72
2022/08/29 10:23:05;;;;;;;4.55;4.15;;;23.50;75.20;;;;;;5033900;28;20226;-71
2022/08/29 10:25:36;;;;;;;4.07;3.78;;;23.50;75.20;;;;;;4979733;28;20204;-72
2022/08/29 10:28:21;;;;;;;4.18;3.88;;;23.60;75.40;;;;;;5012343;28;20207;-72
2022/08/29 10:31:14;;;;;;;4.30;4.00;;;23.50;75.20;;;;;;4997673;28;20211;-72
2022/08/29 10:34:01;;;;;;;4.30;4.00;;;23.60;75.40;;;;;;5012758;28;20242;-71
2022/08/29 10:36:38;;;;;;;4.45;4.05;;;23.60;75.20;;;;;;5013628;28;20605;-71
2022/08/29 10:39:35;;;;;;;4.32;4.03;;;23.60;75.30;;;;;;4996906;28;20195;-71
2022/08/29 10:42:13;;;;;;;4.05;3.75;;;23.60;75.30;;;;;;5013609;28;20260;-72
2022/08/29 10:45:03;;;;;;;4.78;4.38;;;23.60;75.30;;;;;;5029634;28;20340;-71
2022/08/29 10:47:40;;;;;;;4.70;4.18;;;23.60;75.20;;;;;;5013443;28;20184;-71
2022/08/29 10:50:28;;;;;;;4.35;3.95;;;23.60;75.20;;;;;;4996947;28;20211;-71
2022/08/29 10:53:33;;;;;;;4.25;3.95;;;23.60;75.10;;;;;;4996645;28;20259;-70
2022/08/29 10:56:29;;;;;;;4.32;3.92;;;23.60;75.20;;;;;;5015749;28;20222;-70
2022/08/29 10:59:04;;;;;;;4.40;3.97;;;23.60;75.10;;;;;;5032531;28;20203;-70
2022/08/29 11:01:42;;;;;;;4.65;4.20;;;23.60;75.00;;;;;;5016455;28;20186;-70
2022/08/29 11:04:25;;;;;;;5.68;4.07;;;23.60;75.20;;;;;;5032236;28;20187;-70
2022/08/29 11:07:21;;;;;;;4.00;3.70;;;23.60;74.80;;;;;;5033899;28;20195;-70
2022/08/29 11:10:05;;;;;;;4.60;4.20;;;23.60;74.90;;;;;;5033669;28;20203;-70
2022/08/29 11:12:58;;;;;;;4.05;3.75;;;23.60;75.20;;;;;;5033040;28;20171;-70
2022/08/29 11:15:52;;;;;;;4.13;3.83;;;23.60;75.20;;;;;;5032268;28;20179;-70
2022/08/29 11:18:43;;;;;;;4.47;3.85;;;23.60;75.20;;;;;;5033444;28;20230;-71
2022/08/29 11:21:45;;;;;;;4.60;4.13;;;23.60;75.30;;;;;;5032817;28;20183;-70
2022/08/29 11:24:16;;;;;;;5.85;3.83;;;23.60;76.00;;;;;;5031856;28;20222;-70
2022/08/29 11:27:38;;;;;;;3.97;3.67;;;23.60;75.30;;;;;;5048744;28;20214;-70
2022/08/29 11:30:20;;;;;;;4.78;4.38;;;23.60;75.50;;;;;;5032309;28;20210;-71
2022/08/29 11:33:20;;;;;;;4.10;3.67;;;23.60;75.40;;;;;;5049068;28;20187;-71
2022/08/29 11:36:29;;;;;;;4.38;3.97;;;23.60;75.20;;;;;;5032282;28;20690;-71
2022/08/29 11:39:17;;;;;;;4.43;4.03;;;23.60;75.40;;;;;;5032197;28;20211;-71
2022/08/29 11:41:48;;;;;;;4.45;4.05;;;23.60;75.10;;;;;;5032017;28;20234;-71
2022/08/29 11:44:39;;;;;;;10.60;4.28;;;23.70;75.00;;;;;;5031820;28;20234;-71
2022/08/29 11:47:38;;;;;;;4.82;4.43;;;23.60;74.90;;;;;;5032019;28;20187;-71
2022/08/29 11:50:16;;;;;;;4.47;4.07;;;23.60;74.90;;;;;;5031910;28;20213;-71
2022/08/29 11:53:32;;;;;;;4.30;4.00;;;23.60;74.90;;;;;;5031741;28;20222;-71
2022/08/29 11:56:14;;;;;;;4.55;4.20;;;23.60;74.70;;;;;;5030773;28;20203;-71
2022/08/29 11:58:51;;;;;;;4.68;4.20;;;23.70;74.70;;;;;;5032852;28;20701;-72
2022/08/29 12:01:35;;;;;;;4.80;4.22;;;23.70;74.90;;;;;;5031712;28;20284;-71
2022/08/29 12:04:04;;;;;;;4.85;4.40;;;23.60;74.80;;;;;;5031174;28;20221;-71
2022/08/29 12:06:59;;;;;;;4.13;3.75;;;23.70;74.90;;;;;;5031764;28;20558;-71
2022/08/29 12:09:55;;;;;;;4.43;4.03;;;23.70;74.90;;;;;;5031257;28;20207;-71
2022/08/29 12:12:44;;;;;;;4.90;4.30;;;23.70;74.60;;;;;;5032659;28;20175;-71
2022/08/29 12:15:29;;;;;;;4.57;4.15;;;23.70;74.50;;;;;;5030890;28;20182;-71
2022/08/29 12:18:06;;;;;;;4.35;3.95;;;23.60;74.50;;;;;;5031141;28;20210;-71
2022/08/29 12:20:40;;;;;;;4.30;4.00;;;23.70;74.60;;;;;;5031663;28;20218;-72
2022/08/29 12:23:21;;;;;;;4.47;3.83;;;23.70;74.60;;;;;;5014966;28;20191;-71
2022/08/29 12:25:55;;;;;;;4.07;3.78;;;23.70;74.60;;;;;;5014748;28;20682;-71
2022/08/29 12:28:20;;;;;;;4.25;3.85;;;23.70;74.60;;;;;;5031241;28;20273;-71
2022/08/29 12:30:50;;;;;;;4.40;4.00;;;23.70;74.60;;;;;;5014787;28;20207;-71
2022/08/29 12:33:51;;;;;;;4.25;3.85;;;23.70;74.50;;;;;;5029789;28;20258;-71
2022/08/29 12:37:04;;;;;;;4.35;3.97;;;23.70;74.60;;;;;;5031313;28;20188;-71
2022/08/29 12:40:07;;;;;;;3.92;3.63;;;23.70;74.90;;;;;;5031274;28;20221;-71
2022/08/29 12:42:55;;;;;;;4.43;4.13;;;23.70;74.50;;;;;;5031435;28;20187;-71
2022/08/29 12:45:26;;;;;;;4.93;4.05;;;23.70;74.60;;;;;;5031719;28;20191;-71
2022/08/29 12:48:11;;;;;;;4.07;3.72;;;23.70;74.60;;;;;;5032567;28;20258;-71
2022/08/29 12:50:44;;;;;;;4.65;4.22;;;23.70;74.50;;;;;;5030989;28;20674;-71
2022/08/29 12:53:23;;;;;;;4.47;4.15;;;23.70;74.70;;;;;;5031014;28;20281;-71
2022/08/29 12:55:58;;;;;;;4.05;3.75;;;23.70;74.60;;;;;;5032310;28;20209;-71
2022/08/29 12:58:40;;;;;;;4.30;3.90;;;23.70;74.40;;;;;;5031038;28;20229;-71
2022/08/29 13:01:39;;;;;;;4.38;4.07;;;23.70;74.50;;;;;;5031183;28;20186;-71
2022/08/29 13:04:17;;;;;;;4.30;3.90;;;23.70;74.30;;;;;;5030017;28;20562;-71
2022/08/29 13:07:15;;;;;;;4.38;4.03;;;23.70;74.40;;;;;;5014687;28;20213;-71
2022/08/29 13:09:50;;;;;;;4.07;3.72;;;23.70;74.50;;;;;;5031456;28;20214;-71
2022/08/29 13:12:21;;;;;;;4.93;4.50;;;23.70;74.50;;;;;;5031802;28;20179;-71
2022/08/29 13:15:03;;;;;;;4.10;3.70;;;23.70;74.50;;;;;;5030420;28;20167;-72
2022/08/29 13:17:34;;;;;;;4.50;4.10;;;23.70;74.30;;;;;;5034458;28;20557;-71
2022/08/29 13:20:41;;;;;;;4.13;3.83;;;23.70;74.10;;;;;;5034674;28;20199;-71
2022/08/29 13:23:25;;;;;;;4.43;4.10;;;23.70;74.00;;;;;;5034717;28;20202;-71